This is the latest recevied weather packets stored in our database for station/object UR7D-12. If no packets are shown the sender has not sent any weather packets the latest 10 day(s).
| Time | Temp. | Humidity | Pressure | Rain* | Wind** | Luminosity | Snow |
|---|---|---|---|---|---|---|---|
| 1777683035 | 7.22° C | 70% | 997.3 hPa | 0 mm | - | - | - |
| 1777682732 | 6.67° C | 72% | 997.3 hPa | 0 mm | - | - | - |
| 1777682433 | 7.22° C | 71% | 997.3 hPa | 0 mm | - | - | - |
| 1777682132 | 7.22° C | 70% | 997.2 hPa | 0 mm | - | - | - |
| 1777681832 | 7.78° C | 70% | 997.1 hPa | 0 mm | - | - | - |
| 1777681534 | 7.78° C | 70% | 997.2 hPa | 0 mm | - | - | - |
| 1777681234 | 7.78° C | 69% | 997.2 hPa | 0 mm | - | - | - |
| 1777680936 | 7.78° C | 68% | 997.2 hPa | 0 mm | - | - | - |
| 1777680333 | 8.89° C | 64% | 997.2 hPa | 0 mm | - | - | - |
| 1777680031 | 9.44° C | 62% | 997.3 hPa | 0 mm | - | - | - |
| 1777679731 | 9.44° C | 61% | 997.3 hPa | 0 mm | - | - | - |
| 1777679129 | 9.44° C | 62% | 997.4 hPa | 0 mm | - | - | - |
| 1777678832 | 9.44° C | 62% | 997.3 hPa | 0 mm | - | - | - |
| 1777678528 | 9.44° C | 62% | 997.4 hPa | 0 mm | - | - | - |
| 1777677930 | 9.44° C | 61% | 997.4 hPa | 0 mm | - | - | - |
| 1777677329 | 9.44° C | 61% | 997.4 hPa | 0 mm | - | - | - |
| 1777676726 | 9.44° C | 62% | 997.5 hPa | 0 mm | - | - | - |
| 1777676126 | 9.44° C | 61% | 997.5 hPa | 0 mm | - | - | - |
| 1777675226 | 10° C | 59% | 997.6 hPa | 0 mm | - | - | - |
| 1777674327 | 10° C | 59% | 997.5 hPa | 0 mm | - | - | - |
| 1777674029 | 10° C | 59% | 997.6 hPa | 0 mm | - | - | - |
| 1777673725 | 10° C | 59% | 997.6 hPa | 0 mm | - | - | - |
| 1777673425 | 10° C | 59% | 997.6 hPa | 0 mm | - | - | - |
| 1777673123 | 10° C | 59% | 997.6 hPa | 0 mm | - | - | - |
| 1777672826 | 10° C | 58% | 997.6 hPa | 0 mm | - | - | - |
* Rain latest hour (hover to see other rain measurements)
** Current wind speed in m/s (hover to see current wind gust speed)